Time;durP1;ratioP1;P1;durP2;ratioP2;P2;SDS_P1;SDS_P2;PMS_P1;PMS_P2;Temp;Humidity;BMP_temperature;BMP_pressure;BME280_temperature;BME280_humidity;BME280_pressure;Samples;Min_cycle;Max_cycle;Signal;HPM_P1;HPM_P2
2022/06/23 00:01:05;;;;;;;2.60;2.40;;;;;;;;;;5056471;22;21007;-57
2022/06/23 00:03:33;;;;;;;2.70;2.50;;;;;;;;;;5034331;28;20434;-57
2022/06/23 00:06:00;;;;;;;4.63;2.07;;;;;;;;;;5034313;28;20400;-57
2022/06/23 00:08:27;;;;;;;2.67;2.17;;;;;;;;;;5034192;28;20477;-56
2022/06/23 00:10:57;;;;;;;2.70;2.03;;;;;;;;;;5043953;28;20925;-57
2022/06/23 00:13:32;;;;;;;2.03;1.90;;;;;;;;;;5054107;28;20413;-57
2022/06/23 00:15:58;;;;;;;2.60;2.40;;;;;;;;;;5054114;28;20379;-57
2022/06/23 00:18:26;;;;;;;2.40;2.30;;;;;;;;;;5053954;28;20411;-57
2022/06/23 00:21:00;;;;;;;3.57;2.33;;;;;;;;;;5053508;28;20424;-57
2022/06/23 00:23:31;;;;;;;2.37;2.27;;;;;;;;;;5036040;28;20919;-57
2022/06/23 00:25:59;;;;;;;3.60;2.33;;;;;;;;;;5053990;28;20419;-57
2022/06/23 00:28:28;;;;;;;2.83;2.23;;;;;;;;;;5053886;28;20455;-57
2022/06/23 00:30:58;;;;;;;5.80;2.30;;;;;;;;;;5053357;28;20486;-57
2022/06/23 00:33:29;;;;;;;6.03;2.53;;;;;;;;;;5053586;28;20771;-57
2022/06/23 00:35:56;;;;;;;4.20;2.60;;;;;;;;;;5053690;28;20378;-57
2022/06/23 00:38:28;;;;;;;3.63;2.07;;;;;;;;;;5053650;28;20378;-56
2022/06/23 00:40:54;;;;;;;2.73;2.53;;;;;;;;;;5053264;28;20463;-57
2022/06/23 00:43:21;;;;;;;4.63;3.10;;;;;;;;;;5053505;28;20411;-57
2022/06/23 00:46:07;;;;;;;2.80;2.60;;;;;;;;;;5053376;28;20385;-56
2022/06/23 00:48:40;;;;;;;3.93;2.97;;;;;;;;;;5053213;28;20429;-56
2022/06/23 00:51:15;;;;;;;3.17;2.90;;;;;;;;;;5053108;28;20479;-57
2022/06/23 00:53:43;;;;;;;6.30;2.80;;;;;;;;;;5053398;28;20378;-57
2022/06/23 00:56:09;;;;;;;4.03;2.83;;;;;;;;;;5053151;28;20393;-57
2022/06/23 00:58:49;;;;;;;3.70;2.80;;;;;;;;;;5053201;28;20404;-57
2022/06/23 01:01:24;;;;;;;3.50;3.20;;;;;;;;;;5051762;28;20594;-57
2022/06/23 01:03:54;;;;;;;3.43;3.13;;;;;;;;;;5034738;28;20418;-57
2022/06/23 01:06:25;;;;;;;3.47;3.07;;;;;;;;;;5052839;28;20443;-57
2022/06/23 01:09:11;;;;;;;3.40;2.87;;;;;;;;;;5052939;28;20454;-57
2022/06/23 01:11:47;;;;;;;3.83;3.27;;;;;;;;;;5052638;28;20429;-56
2022/06/23 01:14:22;;;;;;;3.60;2.97;;;;;;;;;;5053032;28;20429;-57
2022/06/23 01:17:17;;;;;;;3.83;3.53;;;;;;;;;;5052897;28;20394;-56
2022/06/23 01:19:43;;;;;;;5.03;3.83;;;;;;;;;;5035549;28;20916;-57
2022/06/23 01:22:17;;;;;;;2.90;2.70;;;;;;;;;;5052678;28;20408;-56
2022/06/23 01:24:55;;;;;;;3.23;2.93;;;;;;;;;;5052766;28;20402;-57
2022/06/23 01:27:40;;;;;;;3.80;3.50;;;;;;;;;;5052687;28;20409;-57
2022/06/23 01:30:07;;;;;;;4.30;3.57;;;;;;;;;;5052216;28;20783;-56
2022/06/23 01:32:36;;;;;;;4.20;3.20;;;;;;;;;;5052632;28;20463;-56
2022/06/23 01:35:22;;;;;;;12.90;3.77;;;;;;;;;;5052566;28;20394;-57
2022/06/23 01:37:51;;;;;;;5.33;3.50;;;;;;;;;;5011607;28;20386;-57
2022/06/23 01:40:22;;;;;;;4.90;3.00;;;;;;;;;;5052330;28;20427;-57
2022/06/23 01:42:52;;;;;;;4.87;3.13;;;;;;;;;;5052381;28;20456;-57
2022/06/23 01:45:27;;;;;;;5.27;3.37;;;;;;;;;;5052294;28;20460;-57
2022/06/23 01:48:02;;;;;;;5.97;3.27;;;;;;;;;;5052252;28;20425;-56
2022/06/23 01:50:42;;;;;;;3.30;2.90;;;;;;;;;;5051864;28;20537;-57
2022/06/23 01:53:13;;;;;;;3.30;3.10;;;;;;;;;;5052264;28;20733;-56
2022/06/23 01:55:59;;;;;;;3.43;3.10;;;;;;;;;;5052286;28;20451;-56
2022/06/23 01:58:28;;;;;;;3.90;3.60;;;;;;;;;;5052079;28;20407;-56
2022/06/23 02:00:57;;;;;;;5.37;3.40;;;;;;;;;;5051505;28;20450;-57
2022/06/23 02:03:26;;;;;;;6.43;3.03;;;;;;;;;;5052132;28;20397;-57
2022/06/23 02:05:55;;;;;;;3.73;3.50;;;;;;;;;;5052395;28;20814;-57
2022/06/23 02:08:27;;;;;;;4.50;4.10;;;;;;;;;;5052017;28;20607;-57
2022/06/23 02:10:58;;;;;;;4.50;3.10;;;;;;;;;;5051668;28;20888;-57
2022/06/23 02:13:27;;;;;;;4.40;3.60;;;;;;;;;;5051022;28;20867;-57
2022/06/23 02:16:11;;;;;;;3.27;3.00;;;;;;;;;;5051942;28;20379;-56
2022/06/23 02:18:46;;;;;;;4.70;3.43;;;;;;;;;;5051858;28;20408;-57
2022/06/23 02:21:22;;;;;;;5.10;3.17;;;;;;;;;;5051445;28;20417;-57
2022/06/23 02:24:05;;;;;;;3.30;3.10;;;;;;;;;;5051709;28;20880;-57
2022/06/23 02:26:33;;;;;;;7.47;3.00;;;;;;;;;;5051822;28;20909;-57
2022/06/23 02:29:12;;;;;;;3.20;2.90;;;;;;;;;;5051638;28;20453;-56
2022/06/23 02:31:58;;;;;;;3.47;3.17;;;;;;;;;;5051481;28;20848;-56
2022/06/23 02:34:42;;;;;;;6.10;3.23;;;;;;;;;;5051309;28;20923;-57
2022/06/23 02:37:27;;;;;;;3.57;3.27;;;;;;;;;;5051643;28;20398;-57
2022/06/23 02:39:55;;;;;;;5.17;3.30;;;;;;;;;;5051481;28;20401;-56
2022/06/23 02:42:30;;;;;;;5.80;3.23;;;;;;;;;;5051368;28;20859;-56
2022/06/23 02:45:14;;;;;;;3.33;3.03;;;;;;;;;;5051751;28;20551;-57
2022/06/23 02:47:59;;;;;;;3.50;3.20;;;;;;;;;;5051545;28;20402;-57
2022/06/23 02:50:29;;;;;;;3.30;2.83;;;;;;;;;;5051266;28;20454;-57
2022/06/23 02:53:04;;;;;;;4.00;3.60;;;;;;;;;;5051964;28;20380;-57
2022/06/23 02:55:30;;;;;;;4.50;4.10;;;;;;;;;;5051525;28;20399;-56
2022/06/23 02:57:58;;;;;;;4.33;3.73;;;;;;;;;;5051339;28;20923;-57
2022/06/23 03:00:42;;;;;;;3.60;3.30;;;;;;;;;;5051035;28;20677;-57
2022/06/23 03:03:20;;;;;;;6.33;4.10;;;;;;;;;;5051402;28;20442;-56
2022/06/23 03:05:52;;;;;;;4.30;3.90;;;;;;;;;;5051510;28;20404;-56
2022/06/23 03:08:18;;;;;;;5.60;5.10;;;;;;;;;;5051289;28;20478;-56
2022/06/23 03:10:48;;;;;;;4.63;3.87;;;;;;;;;;5051169;28;20948;-56
2022/06/23 03:13:20;;;;;;;4.97;4.50;;;;;;;;;;5051377;28;20400;-57
2022/06/23 03:15:48;;;;;;;13.63;4.23;;;;;;;;;;5051345;28;20419;-56
2022/06/23 03:18:21;;;;;;;5.60;4.67;;;;;;;;;;5051522;28;20410;-57
2022/06/23 03:20:53;;;;;;;5.30;4.80;;;;;;;;;;5051053;28;20825;-57
2022/06/23 03:23:34;;;;;;;8.27;5.37;;;;;;;;;;5051785;28;20940;-57
2022/06/23 03:26:03;;;;;;;6.43;5.10;;;;;;;;;;5055032;28;20380;-55
2022/06/23 03:28:35;;;;;;;5.43;4.30;;;;;;;;;;5054763;28;20825;-56
2022/06/23 03:31:07;;;;;;;5.97;5.33;;;;;;;;;;5054547;28;20407;-56
2022/06/23 03:33:34;;;;;;;8.10;5.23;;;;;;;;;;5054939;28;20397;-56
2022/06/23 03:36:24;;;;;;;6.13;4.87;;;;;;;;;;5054872;28;20377;-56
2022/06/23 03:41:59;;;;;;;5.03;4.53;;;;;;;;;;5009898;28;20404;-56
2022/06/23 03:44:25;;;;;;;8.27;5.07;;;;;;;;;;5054763;28;20380;-56
2022/06/23 03:46:55;;;;;;;7.10;5.63;;;;;;;;;;5054693;28;20794;-56
2022/06/23 03:49:36;;;;;;;5.70;5.10;;;;;;;;;;5054424;28;21008;-56
2022/06/23 03:52:03;;;;;;;7.90;6.80;;;;;;;;;;5054466;28;20419;-56
2022/06/23 03:54:32;;;;;;;5.60;5.10;;;;;;;;;;5054517;28;20379;-57
2022/06/23 03:57:06;;;;;;;6.90;5.50;;;;;;;;;;5054385;28;20367;-56
2022/06/23 03:59:32;;;;;;;5.97;5.47;;;;;;;;;;5054201;28;20380;-56
2022/06/23 04:02:05;;;;;;;9.20;5.47;;;;;;;;;;5054006;28;20498;-57
2022/06/23 04:04:43;;;;;;;5.37;4.87;;;;;;;;;;5054201;28;20454;-56
2022/06/23 04:07:27;;;;;;;7.30;5.60;;;;;;;;;;5054284;28;20380;-57
2022/06/23 04:09:54;;;;;;;9.00;5.10;;;;;;;;;;5054025;28;20519;-57
2022/06/23 04:12:20;;;;;;;6.67;5.43;;;;;;;;;;5053930;28;20376;-56
2022/06/23 04:14:50;;;;;;;6.80;4.90;;;;;;;;;;5054302;28;20396;-56
2022/06/23 04:17:35;;;;;;;6.83;4.93;;;;;;;;;;5054063;28;20397;-57
2022/06/23 04:20:15;;;;;;;6.33;5.07;;;;;;;;;;5053869;28;20399;-56
2022/06/23 04:22:49;;;;;;;6.73;5.80;;;;;;;;;;5053843;28;20896;-57
2022/06/23 04:25:20;;;;;;;8.43;5.60;;;;;;;;;;5053920;28;20372;-56
2022/06/23 04:27:58;;;;;;;5.57;4.87;;;;;;;;;;5053853;28;20410;-56
2022/06/23 04:30:27;;;;;;;9.73;5.77;;;;;;;;;;5053503;28;20447;-57
2022/06/23 04:32:55;;;;;;;6.37;5.77;;;;;;;;;;5053736;28;20883;-57
2022/06/23 04:35:27;;;;;;;5.50;5.00;;;;;;;;;;5052821;28;20398;-56
2022/06/23 04:38:05;;;;;;;6.23;5.30;;;;;;;;;;5053715;28;20404;-56
2022/06/23 04:40:37;;;;;;;6.60;4.97;;;;;;;;;;5053162;28;20748;-56
2022/06/23 04:43:14;;;;;;;8.47;5.13;;;;;;;;;;5053613;28;20385;-56
2022/06/23 04:45:49;;;;;;;7.37;5.53;;;;;;;;;;5053483;28;20410;-57
2022/06/23 04:48:22;;;;;;;5.60;4.87;;;;;;;;;;5053475;28;20525;-56
2022/06/23 04:50:54;;;;;;;7.00;5.40;;;;;;;;;;5053126;28;20400;-57
2022/06/23 04:53:26;;;;;;;5.73;5.23;;;;;;;;;;5053410;28;20365;-56
2022/06/23 04:56:00;;;;;;;7.80;5.47;;;;;;;;;;5053715;28;20819;-56
2022/06/23 04:58:26;;;;;;;8.17;4.73;;;;;;;;;;5053278;28;20380;-57
2022/06/23 05:00:54;;;;;;;4.93;4.53;;;;;;;;;;5052880;28;20793;-56
2022/06/23 05:03:23;;;;;;;5.97;4.90;;;;;;;;;;5053106;28;20893;-57
2022/06/23 05:05:59;;;;;;;5.60;4.23;;;;;;;;;;5053193;28;20493;-57
2022/06/23 05:08:27;;;;;;;5.37;4.87;;;;;;;;;;5052865;28;20489;-57
2022/06/23 05:10:56;;;;;;;6.37;4.90;;;;;;;;;;5052796;28;20466;-57
2022/06/23 05:13:24;;;;;;;4.73;4.23;;;;;;;;;;5053083;28;20471;-57
2022/06/23 05:16:00;;;;;;;6.70;5.37;;;;;;;;;;5053028;28;20410;-57
2022/06/23 05:18:31;;;;;;;4.93;4.53;;;;;;;;;;5053368;28;20436;-56
2022/06/23 05:21:13;;;;;;;7.37;4.67;;;;;;;;;;5052387;28;20900;-56
2022/06/23 05:23:41;;;;;;;7.07;5.33;;;;;;;;;;5052871;28;20945;-56
2022/06/23 05:26:13;;;;;;;7.10;5.80;;;;;;;;;;5052652;28;20395;-57
2022/06/23 05:28:41;;;;;;;5.80;5.07;;;;;;;;;;5052560;28;20437;-56
2022/06/23 05:31:08;;;;;;;6.03;5.33;;;;;;;;;;5052253;28;20434;-57
2022/06/23 05:33:36;;;;;;;8.27;5.23;;;;;;;;;;5052828;28;20439;-56
2022/06/23 05:36:04;;;;;;;6.30;5.70;;;;;;;;;;5052581;28;20403;-57
2022/06/23 05:38:49;;;;;;;8.83;4.87;;;;;;;;;;5052520;28;20869;-56
2022/06/23 05:41:22;;;;;;;9.57;5.10;;;;;;;;;;5052081;28;20424;-57
2022/06/23 05:43:49;;;;;;;7.00;5.53;;;;;;;;;;5052426;28;20436;-57
2022/06/23 05:46:18;;;;;;;5.30;4.80;;;;;;;;;;5052333;28;20448;-57
2022/06/23 05:48:47;;;;;;;9.33;5.40;;;;;;;;;;5052300;28;20976;-57
2022/06/23 05:51:21;;;;;;;14.47;5.50;;;;;;;;;;5052001;28;20425;-57
2022/06/23 05:53:58;;;;;;;8.40;4.93;;;;;;;;;;5052188;28;20839;-57
2022/06/23 05:56:29;;;;;;;6.03;5.43;;;;;;;;;;5052230;28;21219;-57
2022/06/23 05:59:10;;;;;;;8.80;6.23;;;;;;;;;;5052346;28;20463;-57
2022/06/23 06:01:38;;;;;;;7.43;5.40;;;;;;;;;;5060105;22;20911;-56
2022/06/23 06:04:17;;;;;;;6.60;4.67;;;;;;;;;;5032306;28;20454;-56
2022/06/23 06:06:45;;;;;;;6.10;5.07;;;;;;;;;;5032375;28;20376;-57
2022/06/23 06:11:57;;;;;;;8.30;5.00;;;;;;;;;;5032217;28;20423;-56
2022/06/23 06:14:26;;;;;;;7.83;5.57;;;;;;;;;;5030696;28;20387;-55
2022/06/23 06:16:53;;;;;;;5.97;4.53;;;;;;;;;;5032775;28;20785;-55
2022/06/23 06:19:20;;;;;;;6.63;4.47;;;;;;;;;;5032057;28;20886;-55
2022/06/23 06:21:47;;;;;;;12.80;5.10;;;;;;;;;;5031822;28;20436;-56
2022/06/23 06:24:18;;;;;;;6.47;4.73;;;;;;;;;;5032248;28;20797;-56
2022/06/23 06:26:46;;;;;;;7.40;5.30;;;;;;;;;;5032020;28;20410;-55
2022/06/23 06:29:14;;;;;;;11.97;5.00;;;;;;;;;;5032095;28;20499;-55
2022/06/23 06:31:43;;;;;;;12.03;4.83;;;;;;;;;;5031529;28;20428;-57
2022/06/23 06:34:14;;;;;;;6.43;4.73;;;;;;;;;;5031949;28;20396;-57
2022/06/23 06:36:48;;;;;;;8.20;4.40;;;;;;;;;;5032013;28;20411;-56
2022/06/23 06:39:32;;;;;;;8.07;4.43;;;;;;;;;;5031693;28;20489;-57
2022/06/23 06:42:01;;;;;;;4.57;4.17;;;;;;;;;;5031797;28;20420;-56
2022/06/23 06:44:29;;;;;;;6.67;4.10;;;;;;;;;;5031898;28;20407;-56
2022/06/23 06:46:55;;;;;;;13.93;4.27;;;;;;;;;;5031701;28;20436;-56
2022/06/23 06:49:23;;;;;;;6.90;4.77;;;;;;;;;;5031707;28;20455;-55
2022/06/23 06:51:50;;;;;;;10.27;4.20;;;;;;;;;;5031323;28;20431;-55
2022/06/23 06:54:23;;;;;;;9.20;4.47;;;;;;;;;;5031901;28;20401;-56
2022/06/23 06:56:52;;;;;;;7.67;3.90;;;;;;;;;;5031656;28;20407;-56
2022/06/23 06:59:25;;;;;;;6.57;4.37;;;;;;;;;;5034017;28;20877;-56
2022/06/23 07:01:56;;;;;;;10.13;4.90;;;;;;;;;;5035164;28;20546;-57
2022/06/23 07:04:27;;;;;;;5.60;4.57;;;;;;;;;;5035704;28;20438;-57
2022/06/23 07:06:56;;;;;;;5.47;4.50;;;;;;;;;;5035449;28;20517;-56
2022/06/23 07:09:37;;;;;;;7.77;4.30;;;;;;;;;;5035521;28;20508;-58
2022/06/23 07:12:09;;;;;;;10.83;5.93;;;;;;;;;;5035083;28;20414;-55
2022/06/23 07:14:40;;;;;;;11.10;5.00;;;;;;;;;;5035181;28;20407;-56
2022/06/23 07:17:10;;;;;;;5.47;4.97;;;;;;;;;;5035525;28;20429;-56
2022/06/23 07:19:51;;;;;;;5.87;4.17;;;;;;;;;;5035326;28;20778;-58
2022/06/23 07:22:23;;;;;;;6.03;4.60;;;;;;;;;;5035103;28;20424;-56
2022/06/23 07:24:56;;;;;;;5.10;4.60;;;;;;;;;;5035191;28;20469;-58
2022/06/23 07:27:22;;;;;;;6.63;4.00;;;;;;;;;;5035427;28;20408;-56
2022/06/23 07:29:55;;;;;;;4.50;4.10;;;;;;;;;;5035124;28;20822;-57
2022/06/23 07:32:29;;;;;;;6.57;4.57;;;;;;;;;;5034966;28;20414;-56
2022/06/23 07:34:58;;;;;;;9.00;4.30;;;;;;;;;;5034027;28;20410;-56
2022/06/23 07:37:43;;;;;;;4.80;3.47;;;;;;;;;;5035172;28;20410;-58
2022/06/23 07:40:11;;;;;;;7.20;3.43;;;;;;;;;;5035065;28;20406;-57
2022/06/23 07:42:44;;;;;;;5.07;3.67;;;;;;;;;;5035486;28;20415;-57
2022/06/23 07:45:19;;;;;;;4.23;3.93;;;;;;;;;;5035281;28;20475;-57
2022/06/23 07:47:45;;;;;;;4.70;4.30;;;;;;;;;;5035097;28;20502;-57
2022/06/23 07:50:11;;;;;;;4.90;3.90;;;;;;;;;;5035018;28;20487;-58
2022/06/23 07:52:37;;;;;;;4.63;3.90;;;;;;;;;;5035159;28;20431;-58
2022/06/23 07:55:03;;;;;;;4.30;3.90;;;;;;;;;;5035292;28;20520;-56
2022/06/23 07:57:30;;;;;;;4.90;3.73;;;;;;;;;;5035580;28;20811;-55
2022/06/23 07:59:59;;;;;;;4.27;3.97;;;;;;;;;;5034845;28;20436;-55
2022/06/23 08:02:25;;;;;;;4.60;4.00;;;;;;;;;;5034759;28;20953;-57
2022/06/23 08:05:03;;;;;;;4.53;4.07;;;;;;;;;;5035164;28;20522;-57
2022/06/23 08:07:30;;;;;;;4.53;4.10;;;;;;;;;;5034880;28;20452;-58
2022/06/23 08:09:58;;;;;;;5.80;4.23;;;;;;;;;;5033261;28;20458;-57
2022/06/23 08:18:09;;;;;;;7.13;4.10;;;;;;;;;;5034991;28;20400;-56
2022/06/23 08:20:37;;;;;;;4.83;4.07;;;;;;;;;;5034018;28;20836;-56
2022/06/23 08:23:04;;;;;;;11.23;3.50;;;;;;;;;;5034471;28;20413;-57
2022/06/23 08:25:30;;;;;;;5.57;3.90;;;;;;;;;;5030205;28;20433;-56
2022/06/23 08:27:58;;;;;;;3.97;3.67;;;;;;;;;;5032690;28;20909;-56
2022/06/23 08:30:25;;;;;;;4.53;4.13;;;;;;;;;;5034108;28;20430;-59
2022/06/23 08:32:52;;;;;;;5.90;3.40;;;;;;;;;;5034015;28;20429;-57
2022/06/23 08:35:18;;;;;;;4.10;3.80;;;;;;;;;;5033884;28;20840;-56
2022/06/23 08:37:52;;;;;;;5.70;4.93;;;;;;;;;;5034018;28;20501;-56
2022/06/23 08:40:36;;;;;;;7.80;3.40;;;;;;;;;;5033600;28;20417;-54
2022/06/23 08:43:21;;;;;;;3.60;3.30;;;;;;;;;;5033642;28;20399;-58
2022/06/23 08:45:56;;;;;;;4.03;3.70;;;;;;;;;;5033874;28;20403;-56
2022/06/23 08:48:23;;;;;;;3.50;3.20;;;;;;;;;;5033862;28;20467;-54
2022/06/23 08:51:07;;;;;;;3.70;3.40;;;;;;;;;;5033227;28;20433;-58
2022/06/23 08:53:40;;;;;;;3.33;3.03;;;;;;;;;;5033131;28;20484;-56
2022/06/23 08:56:19;;;;;;;5.77;3.40;;;;;;;;;;5033036;28;20406;-56
2022/06/23 08:58:54;;;;;;;3.23;2.90;;;;;;;;;;5033306;28;20401;-56
2022/06/23 09:01:22;;;;;;;4.83;3.13;;;;;;;;;;5032896;28;20477;-58
2022/06/23 09:03:51;;;;;;;5.10;3.13;;;;;;;;;;5033262;28;20398;-57
2022/06/23 09:06:28;;;;;;;2.90;2.60;;;;;;;;;;5033225;28;20476;-55
2022/06/23 09:09:03;;;;;;;4.93;3.07;;;;;;;;;;5033077;28;20933;-55
2022/06/23 09:11:29;;;;;;;3.03;2.83;;;;;;;;;;5032879;28;20505;-55
2022/06/23 09:13:55;;;;;;;9.33;2.60;;;;;;;;;;5033018;28;20481;-57
2022/06/23 09:16:24;;;;;;;3.10;2.50;;;;;;;;;;5033258;28;20195;-57
2022/06/23 09:18:53;;;;;;;2.80;2.60;;;;;;;;;;5033109;28;20190;-55
2022/06/23 09:21:32;;;;;;;3.90;2.60;;;;;;;;;;5030901;28;20430;-55
2022/06/23 09:23:58;;;;;;;4.70;2.83;;;;;;;;;;5032753;28;20771;-57
2022/06/23 09:26:29;;;;;;;4.23;2.80;;;;;;;;;;5032820;28;20406;-57
2022/06/23 09:28:56;;;;;;;3.03;2.83;;;;;;;;;;5032610;28;20817;-56
2022/06/23 09:31:35;;;;;;;2.90;2.70;;;;;;;;;;5032446;28;20658;-58
2022/06/23 09:34:20;;;;;;;3.20;3.00;;;;;;;;;;5032630;28;20386;-57
2022/06/23 09:36:55;;;;;;;5.40;2.60;;;;;;;;;;5032728;28;20420;-56
2022/06/23 09:39:30;;;;;;;3.50;2.60;;;;;;;;;;5032567;28;20390;-55
2022/06/23 09:41:56;;;;;;;3.20;2.90;;;;;;;;;;5032312;28;20414;-55
2022/06/23 09:44:52;;;;;;;8.40;2.97;;;;;;;;;;5032377;28;20399;-55
2022/06/23 09:47:18;;;;;;;3.67;2.60;;;;;;;;;;5032534;28;20683;-55
2022/06/23 09:50:17;;;;;;;4.00;3.50;;;;;;;;;;5032070;28;20461;-58
2022/06/23 09:52:48;;;;;;;5.33;2.97;;;;;;;;;;4988524;28;20207;-55
2022/06/23 09:55:23;;;;;;;3.30;3.10;;;;;;;;;;5032382;28;20874;-56
2022/06/23 09:58:02;;;;;;;4.57;2.73;;;;;;;;;;5032346;28;20727;-54
2022/06/23 10:00:42;;;;;;;3.07;2.77;;;;;;;;;;5031936;28;20434;-54
2022/06/23 10:03:22;;;;;;;2.87;2.63;;;;;;;;;;5032156;28;20561;-55
2022/06/23 10:06:06;;;;;;;4.53;2.63;;;;;;;;;;5031948;28;20452;-56
2022/06/23 10:08:39;;;;;;;2.37;2.27;;;;;;;;;;5032161;28;20457;-55
2022/06/23 10:11:08;;;;;;;3.63;2.50;;;;;;;;;;5031741;28;20442;-55
2022/06/23 10:13:54;;;;;;;2.83;2.63;;;;;;;;;;5032082;28;20480;-55
2022/06/23 10:16:53;;;;;;;2.90;2.70;;;;;;;;;;5032070;28;20881;-56
2022/06/23 10:19:30;;;;;;;2.83;2.67;;;;;;;;;;4988267;28;20410;-55
2022/06/23 10:21:59;;;;;;;3.57;2.60;;;;;;;;;;5031650;28;20488;-57
2022/06/23 10:24:34;;;;;;;3.57;2.60;;;;;;;;;;5031977;28;20409;-55
2022/06/23 10:27:03;;;;;;;3.30;2.77;;;;;;;;;;5031942;28;20483;-55
2022/06/23 10:29:29;;;;;;;2.93;2.57;;;;;;;;;;5031788;28;20493;-57
2022/06/23 10:32:13;;;;;;;2.40;2.27;;;;;;;;;;5032029;28;20515;-57
2022/06/23 10:34:48;;;;;;;2.97;2.67;;;;;;;;;;5032004;28;20700;-56
2022/06/23 10:37:44;;;;;;;9.23;2.93;;;;;;;;;;5031947;28;20394;-56
2022/06/23 10:40:28;;;;;;;2.60;2.40;;;;;;;;;;4995074;28;20450;-55
2022/06/23 10:43:00;;;;;;;2.97;2.77;;;;;;;;;;5031142;28;20492;-57
2022/06/23 10:45:41;;;;;;;3.30;3.00;;;;;;;;;;5010811;28;20453;-60
2022/06/23 10:48:07;;;;;;;4.57;3.00;;;;;;;;;;5010729;28;20450;-57
2022/06/23 10:50:53;;;;;;;2.90;2.17;;;;;;;;;;5010774;28;20406;-56
2022/06/23 10:53:34;;;;;;;6.93;3.20;;;;;;;;;;5011816;28;20202;-57
2022/06/23 10:56:18;;;;;;;2.80;2.60;;;;;;;;;;5011849;28;20764;-55
2022/06/23 10:58:53;;;;;;;3.03;2.83;;;;;;;;;;5011941;28;20403;-56
2022/06/23 11:01:28;;;;;;;2.90;2.70;;;;;;;;;;5010182;28;20450;-59
2022/06/23 11:04:03;;;;;;;3.23;2.63;;;;;;;;;;5011798;28;20406;-57
2022/06/23 11:06:29;;;;;;;4.70;3.03;;;;;;;;;;5011974;28;20434;-55
2022/06/23 11:09:10;;;;;;;4.57;2.70;;;;;;;;;;5011862;28;20478;-56
2022/06/23 11:12:12;;;;;;;4.63;2.33;;;;;;;;;;5011376;28;20275;-58
2022/06/23 11:14:46;;;;;;;3.47;2.40;;;;;;;;;;4950820;29;20479;-56
2022/06/23 11:17:18;;;;;;;7.20;2.80;;;;;;;;;;5002848;28;20431;-56
2022/06/23 11:19:50;;;;;;;3.33;2.70;;;;;;;;;;5011770;28;20399;-57
2022/06/23 11:22:31;;;;;;;3.03;2.83;;;;;;;;;;5030833;28;20936;-59
2022/06/23 11:25:03;;;;;;;2.70;2.50;;;;;;;;;;5031174;28;20461;-60
2022/06/23 11:27:38;;;;;;;3.40;3.20;;;;;;;;;;5031215;28;20434;-58
2022/06/23 11:30:07;;;;;;;3.87;2.80;;;;;;;;;;5031072;28;20464;-60
2022/06/23 11:32:43;;;;;;;9.13;2.73;;;;;;;;;;5030820;28;20422;-58
2022/06/23 11:35:19;;;;;;;6.60;3.10;;;;;;;;;;5031195;28;20402;-59
2022/06/23 11:37:49;;;;;;;3.60;2.90;;;;;;;;;;5031307;28;20413;-56
2022/06/23 11:40:15;;;;;;;4.93;2.93;;;;;;;;;;5030761;28;20764;-59
2022/06/23 11:42:44;;;;;;;4.70;2.60;;;;;;;;;;5031018;28;20441;-59
2022/06/23 11:45:16;;;;;;;2.40;2.20;;;;;;;;;;5032418;28;20391;-58
2022/06/23 11:47:51;;;;;;;3.33;2.57;;;;;;;;;;5032021;28;20406;-58
2022/06/23 11:50:22;;;;;;;3.43;2.50;;;;;;;;;;5032693;28;20397;-60
2022/06/23 11:52:57;;;;;;;3.27;2.53;;;;;;;;;;5034434;28;20513;-59
2022/06/23 11:55:33;;;;;;;4.63;2.50;;;;;;;;;;5034517;28;20410;-58
2022/06/23 11:58:19;;;;;;;7.73;2.90;;;;;;;;;;5034514;28;20890;-59
2022/06/23 12:00:53;;;;;;;3.93;2.77;;;;;;;;;;5034001;28;20406;-58
2022/06/23 12:03:22;;;;;;;3.10;2.83;;;;;;;;;;5035089;28;20419;-60
2022/06/23 12:06:02;;;;;;;2.77;2.57;;;;;;;;;;5033050;28;20402;-61
2022/06/23 12:08:35;;;;;;;2.90;2.70;;;;;;;;;;5034333;28;20412;-60
2022/06/23 12:11:01;;;;;;;6.03;2.40;;;;;;;;;;5033866;28;20938;-59
2022/06/23 12:13:28;;;;;;;2.87;2.67;;;;;;;;;;5034263;28;20413;-59
2022/06/23 12:15:55;;;;;;;3.10;2.87;;;;;;;;;;5034066;28;20445;-59
2022/06/23 12:18:24;;;;;;;3.00;2.80;;;;;;;;;;5034207;28;20769;-59
2022/06/23 12:20:52;;;;;;;2.80;2.50;;;;;;;;;;5033511;28;20801;-58
2022/06/23 12:23:18;;;;;;;5.43;2.70;;;;;;;;;;5033993;28;20402;-60
2022/06/23 12:25:47;;;;;;;3.77;2.73;;;;;;;;;;5033982;28;20489;-58
2022/06/23 12:28:13;;;;;;;10.30;4.20;;;;;;;;;;5033922;28;20180;-60
2022/06/23 12:30:42;;;;;;;2.93;2.70;;;;;;;;;;5033258;28;20402;-59
2022/06/23 12:33:31;;;;;;;2.50;2.30;;;;;;;;;;5033873;28;20434;-60
2022/06/23 12:35:57;;;;;;;11.23;2.80;;;;;;;;;;5023382;28;20423;-60
2022/06/23 12:38:34;;;;;;;4.70;2.40;;;;;;;;;;5033748;28;20492;-60
2022/06/23 12:41:09;;;;;;;2.73;2.53;;;;;;;;;;5033222;28;20480;-60
2022/06/23 12:43:47;;;;;;;2.50;2.30;;;;;;;;;;5033792;28;20885;-58
2022/06/23 12:46:13;;;;;;;2.83;2.63;;;;;;;;;;5033537;28;20485;-59
2022/06/23 12:48:45;;;;;;;4.67;3.00;;;;;;;;;;5033646;28;20497;-60
2022/06/23 12:51:25;;;;;;;2.50;2.30;;;;;;;;;;5033175;28;20437;-60
2022/06/23 12:54:04;;;;;;;2.67;2.47;;;;;;;;;;5033568;28;20429;-60
2022/06/23 12:56:36;;;;;;;2.80;2.60;;;;;;;;;;5032672;28;20428;-60
2022/06/23 12:59:02;;;;;;;3.30;3.00;;;;;;;;;;5033274;28;20576;-60
2022/06/23 13:01:46;;;;;;;4.43;2.57;;;;;;;;;;5033017;28;20444;-60
2022/06/23 13:04:21;;;;;;;3.50;3.03;;;;;;;;;;5033326;28;20830;-60
2022/06/23 13:06:56;;;;;;;2.77;2.50;;;;;;;;;;5033346;28;20496;-59
2022/06/23 13:09:25;;;;;;;3.93;2.43;;;;;;;;;;5033141;28;20888;-60
2022/06/23 13:11:51;;;;;;;3.77;2.27;;;;;;;;;;5032826;28;20450;-60
2022/06/23 13:14:21;;;;;;;4.50;2.70;;;;;;;;;;5032999;28;20444;-59
2022/06/23 13:17:06;;;;;;;2.53;2.40;;;;;;;;;;5033271;28;20543;-59
2022/06/23 13:19:35;;;;;;;2.63;2.37;;;;;;;;;;5032891;28;20453;-58
2022/06/23 13:22:08;;;;;;;3.40;2.50;;;;;;;;;;5032671;28;20429;-60
2022/06/23 13:24:35;;;;;;;2.90;2.70;;;;;;;;;;5032936;28;20394;-60
2022/06/23 13:27:05;;;;;;;4.50;2.77;;;;;;;;;;5032655;28;20464;-60
2022/06/23 13:29:44;;;;;;;3.20;2.93;;;;;;;;;;5032900;28;20414;-60
2022/06/23 13:32:28;;;;;;;2.83;2.30;;;;;;;;;;5032520;28;20803;-59
2022/06/23 13:35:09;;;;;;;2.43;2.30;;;;;;;;;;5032761;28;20398;-61
2022/06/23 13:37:58;;;;;;;2.90;2.20;;;;;;;;;;5032628;28;20402;-59
2022/06/23 13:40:24;;;;;;;3.07;2.77;;;;;;;;;;5032382;28;20537;-61
2022/06/23 13:42:55;;;;;;;2.80;2.60;;;;;;;;;;5032510;28;20497;-60
2022/06/23 13:45:38;;;;;;;2.97;2.70;;;;;;;;;;5033141;28;20659;-61
2022/06/23 13:48:28;;;;;;;5.23;2.60;;;;;;;;;;5032390;28;20394;-59
2022/06/23 13:50:58;;;;;;;3.43;2.70;;;;;;;;;;5032137;28;20394;-59
2022/06/23 13:53:28;;;;;;;3.33;3.03;;;;;;;;;;5032400;28;20401;-60
2022/06/23 13:55:59;;;;;;;3.00;2.77;;;;;;;;;;5032330;28;20448;-59
2022/06/23 13:58:49;;;;;;;3.60;3.30;;;;;;;;;;5032150;28;20596;-60
2022/06/23 14:01:21;;;;;;;4.03;2.97;;;;;;;;;;5031829;28;20470;-60
2022/06/23 14:03:53;;;;;;;6.17;2.60;;;;;;;;;;5032359;28;21067;-60
2022/06/23 14:06:37;;;;;;;13.93;2.83;;;;;;;;;;5032182;28;20897;-60
2022/06/23 14:09:06;;;;;;;4.63;2.77;;;;;;;;;;5032084;28;20402;-61
2022/06/23 14:11:38;;;;;;;3.20;2.90;;;;;;;;;;5031858;28;20832;-61
2022/06/23 14:14:18;;;;;;;2.63;2.43;;;;;;;;;;5032472;28;20460;-60
2022/06/23 14:16:44;;;;;;;3.23;2.30;;;;;;;;;;5031971;28;20406;-60
2022/06/23 14:19:13;;;;;;;3.07;2.87;;;;;;;;;;5030803;28;20568;-60
2022/06/23 14:21:59;;;;;;;3.27;2.70;;;;;;;;;;5031591;28;20194;-59
2022/06/23 14:24:30;;;;;;;3.60;2.60;;;;;;;;;;5031880;28;20390;-60
2022/06/23 14:27:14;;;;;;;4.07;3.40;;;;;;;;;;5032267;28;20423;-60
2022/06/23 14:29:59;;;;;;;3.60;2.80;;;;;;;;;;5031835;28;20402;-60
2022/06/23 14:32:30;;;;;;;3.30;3.10;;;;;;;;;;5031435;28;20418;-60
2022/06/23 14:35:12;;;;;;;3.23;2.93;;;;;;;;;;5031875;28;20449;-60
2022/06/23 14:37:45;;;;;;;5.30;3.20;;;;;;;;;;5031608;28;20774;-59
2022/06/23 14:40:13;;;;;;;3.23;3.00;;;;;;;;;;5031509;28;20968;-60
2022/06/23 14:43:01;;;;;;;3.30;3.00;;;;;;;;;;5031546;28;20786;-60
2022/06/23 14:45:30;;;;;;;3.00;2.70;;;;;;;;;;5031887;28;20394;-60
2022/06/23 14:48:15;;;;;;;4.10;3.30;;;;;;;;;;5031682;28;20509;-60
2022/06/23 14:50:43;;;;;;;3.80;3.33;;;;;;;;;;5031356;28;20442;-60
2022/06/23 14:53:10;;;;;;;3.67;3.37;;;;;;;;;;5036874;28;20417;-58
2022/06/23 14:55:45;;;;;;;3.47;2.90;;;;;;;;;;5030715;28;20418;-58
2022/06/23 14:58:27;;;;;;;3.00;2.80;;;;;;;;;;5031295;28;20409;-58
2022/06/23 15:00:57;;;;;;;3.60;3.23;;;;;;;;;;5031421;28;20406;-57
2022/06/23 15:03:42;;;;;;;3.10;2.67;;;;;;;;;;5031372;28;20413;-56
2022/06/23 15:06:08;;;;;;;5.93;3.10;;;;;;;;;;5031454;28;20528;-56
2022/06/23 15:08:46;;;;;;;3.20;3.00;;;;;;;;;;5031421;28;20421;-57
2022/06/23 15:11:32;;;;;;;5.47;3.00;;;;;;;;;;5030958;28;20710;-58
2022/06/23 15:14:07;;;;;;;4.80;3.80;;;;;;;;;;5031065;28;20985;-57
2022/06/23 15:16:45;;;;;;;3.47;3.07;;;;;;;;;;5031423;28;20398;-57
2022/06/23 15:19:10;;;;;;;5.00;2.97;;;;;;;;;;5031529;28;20817;-60
2022/06/23 15:24:34;;;;;;;4.37;4.03;;;;;;;;;;5035654;28;20175;-57
2022/06/23 15:27:08;;;;;;;3.40;3.10;;;;;;;;;;5035034;28;20771;-59
2022/06/23 15:29:57;;;;;;;3.40;2.90;;;;;;;;;;5034884;28;20455;-59
2022/06/23 15:32:31;;;;;;;2.93;2.73;;;;;;;;;;5029140;28;20824;-55
2022/06/23 15:35:08;;;;;;;3.00;2.40;;;;;;;;;;5034865;28;20893;-56